Latest Weather Observations for Mount Baw Baw

IDV60801

Issued at 12:52 pm EST Saturday 8 August 2020 (issued every 10 minutes, with the page automatically refreshed every 10 minutes)

About weather observations | Map of weather stations | Latest weather observations for VIC | Other Formats
Station Details ID: 085291 Name: MOUNT BAW BAW Lat: -37.84 Lon: 146.27 Height: 1561.0 m
Data from the previous 72 hours. | See also: Recent months at Mount Baw Baw
Date/Time
EST
Temp
°C
App
Temp
°C
Dew
Point
°C
Rel
Hum
%
Delta-T
°C
Wind Press
QNH
hPa
Press
MSL
hPa
Rain since
9am
mm
Dir  Spd
km/h
Gust
km/h
Spd
kts
Gust
kts
08/12:30pm 1.0 -4.4 1.0 100 0.0 ENE 19 28 - 15 - - 0.2
08/12:00pm 0.8 -4.9 0.8 100 0.0 ENE 20 30 - 16 - - 0.2
08/11:30am 0.5 -6.0 0.5 100 0.0 ENE 24 41 - 22 - - 0.2
08/11:00am 0.2 -5.9 0.2 100 0.0 NE 22 32 - 17 - - 0.2
08/10:30am 0.0 -6.5 0.0 100 0.0 NE 24 35 - 19 - - 0.2
08/10:00am 0.0 -6.9 0.0 100 0.0 NE 26 39 - 21 - - 0.0
08/09:30am 0.0 -6.9 0.0 100 0.0 ENE 26 39 - 21 - - 0.0
08/09:00am -0.1 -6.7 -0.1 100 0.0 NE 24 33 - 18 - - 4.0
08/08:30am -0.1 -7.0 -0.1 100 0.0 NE 26 37 - 20 - - 3.8
08/08:00am -0.1 -7.0 -0.1 100 0.0 NE 26 35 - 19 - - 3.8
08/07:30am -0.1 -7.0 -0.1 100 0.0 NE 26 37 - 20 - - 3.6
08/07:00am -0.1 -7.0 -0.1 100 0.0 NE 26 37 - 20 - - 3.6
08/06:30am -0.1 -7.0 -0.1 100 0.0 NE 26 39 - 21 - - 3.4
08/06:00am -0.1 -6.7 -0.1 100 0.0 NE 24 32 - 17 - - 3.2
08/05:30am -0.1 -6.7 -0.1 100 0.0 NE 24 33 - 18 - - 3.2
08/05:00am -0.1 -6.7 -0.1 100 0.0 NE 24 35 - 19 - - 3.0
08/04:30am -0.1 -6.3 -0.1 100 0.0 NE 22 32 - 17 - - 3.0
08/04:00am -0.2 -6.4 -0.2 100 0.0 NE 22 35 - 19 - - 2.8
08/03:30am -0.2 -6.8 -0.2 100 0.0 NE 24 37 - 20 - - 2.4
08/03:00am -0.3 -7.3 -0.3 100 0.0 NE 26 43 - 23 - - 2.4
08/02:30am -0.5 -7.5 -0.5 100 0.0 NE 26 39 - 21 - - 2.4
08/02:00am -0.7 -7.7 -0.7 100 0.0 NE 26 37 - 20 - - 2.2
08/01:30am -0.7 -8.1 -0.7 100 0.0 NE 28 39 - 21 - - 2.2
08/01:00am -0.7 -7.7 -0.7 100 0.0 NE 26 35 - 19 - - 2.2
08/12:30am -0.8 -7.5 -0.8 100 0.0 NE 24 39 - 21 - - 2.0
08/12:00am -0.9 -8.0 -0.9 100 0.0 NE 26 35 - 19 - - 2.0
 
Date/Time
EST
Temp
°C
App
Temp
°C
Dew
Point
°C
Rel
Hum
%
Delta-T
°C
Wind Press
QNH
hPa
Press
MSL
hPa
Rain since
9am
mm
Dir  Spd
km/h
Gust
km/h
Spd
kts
Gust
kts
07/11:30pm -0.9 -8.0 -0.9 100 0.0 NE 26 37 - 20 - - 1.8
07/11:00pm -0.7 -8.1 -0.7 100 0.0 NE 28 46 - 25 - - 1.6
07/10:59pm -0.7 -8.1 -0.7 100 0.0 NE 28 46 - 25 - - 1.6
07/10:30pm -0.6 -8.0 -0.6 100 0.0 NE 28 41 - 22 - - 1.6
07/10:00pm -0.6 -7.6 -0.6 100 0.0 NE 26 39 - 21 - - 1.2
07/09:30pm -0.6 -7.6 -0.6 100 0.0 NE 26 35 - 19 - - 1.0
07/09:00pm -0.6 -8.0 -0.6 100 0.0 NE 28 43 - 23 - - 1.0
07/08:30pm -0.6 -8.0 -0.6 100 0.0 NE 28 46 - 25 - - 0.8
07/08:25pm -0.7 -8.1 -0.7 100 0.0 NE 28 46 - 25 - - 0.8
07/08:00pm -0.6 -8.0 -0.6 100 0.0 NE 28 44 - 24 - - 0.8
07/07:40pm -0.6 -8.0 -0.6 100 0.0 NE 28 48 - 26 - - 0.8
07/07:30pm -0.7 -8.1 -0.7 100 0.0 NE 28 39 - 21 - - 0.6
07/07:00pm -0.9 -8.3 -0.9 100 0.0 NE 28 39 - 21 - - 0.6
07/06:30pm -0.9 -8.3 -0.9 100 0.0 NE 28 37 - 20 - - 0.6
07/06:00pm -0.8 -8.2 -0.8 100 0.0 NE 28 43 - 23 - - 0.6
07/05:30pm -0.9 -8.3 -0.9 100 0.0 NE 28 39 - 21 - - 0.6
07/05:00pm -1.1 -8.9 -1.1 100 0.0 NE 30 48 - 26 - - 0.6
07/04:57pm -1.1 -8.9 -1.1 100 0.0 NE 30 48 - 26 - - 0.6
07/04:30pm -1.1 -8.9 -1.1 100 0.0 NE 30 43 - 23 - - 0.2
07/04:00pm -1.1 -8.9 -1.1 100 0.0 NE 30 46 - 25 - - 0.2
07/03:55pm -1.1 -8.6 -1.1 100 0.0 NE 28 46 - 25 - - 0.2
07/03:30pm -1.2 -9.1 -1.2 100 0.0 NE 30 41 - 22 - - 0.2
07/03:00pm -1.2 -7.5 -1.2 100 0.0 E 22 39 - 21 - - 0.2
07/02:54pm -1.3 -4.6 -1.3 100 0.0 ESE 6 37 - 20 - - 0.2
07/02:30pm -1.3 -3.5 -1.3 100 0.0 CALM 0 0 - 0 - - 0.2
07/02:00pm -1.2 -3.4 -1.2 100 0.0 CALM 0 0 - 0 - - 0.2
07/01:30pm -1.4 -3.6 -1.4 100 0.0 CALM 0 0 - 0 - - 0.2
07/01:00pm -1.5 -3.7 -1.5 100 0.0 CALM 0 0 - 0 - - 0.2
07/12:30pm -1.7 -3.9 -1.7 100 0.0 CALM 0 0 - 0 - - 0.2
07/12:00pm -1.5 -3.7 -1.5 100 0.0 CALM 0 0 - 0 - - 0.2
07/11:30am -1.6 -3.8 -1.6 100 0.0 CALM 0 0 - 0 - - 0.2
07/11:00am -1.3 -3.5 -1.3 100 0.0 CALM 0 0 - 0 - - 0.2
07/10:30am -1.2 -3.4 -1.2 100 0.0 CALM 0 0 - 0 - - 0.2
07/10:00am -1.1 -3.2 -1.1 100 0.0 CALM 0 0 - 0 - - 0.2
07/09:30am -0.8 -2.9 -0.8 100 0.0 CALM 0 0 - 0 - - 0.0
07/09:00am -0.8 -2.9 -0.8 100 0.0 CALM 0 0 - 0 - - 1.0
07/08:30am -1.0 -3.1 -1.0 100 0.0 CALM 0 0 - 0 - - 1.0
07/08:00am -1.2 -3.4 -1.2 100 0.0 CALM 0 0 - 0 - - 1.0
07/07:30am -1.5 -3.7 -1.5 100 0.0 CALM 0 0 - 0 - - 1.0
07/07:00am -1.7 -3.9 -1.7 100 0.0 CALM 0 0 - 0 - - 0.8
07/06:30am -1.7 -3.9 -1.7 100 0.0 CALM 0 0 - 0 - - 0.8
07/06:00am -1.9 -4.1 -1.9 100 0.0 CALM 0 0 - 0 - - 0.8
07/05:30am -2.1 -4.4 -2.1 100 0.0 CALM 0 0 - 0 - - 0.8
07/05:00am -2.1 -4.4 -2.2 99 -0.1 CALM 0 0 - 0 - - 0.8
07/04:30am -2.2 -4.5 -2.3 99 -0.1 CALM 0 0 - 0 - - 0.8
07/04:00am -2.2 -4.5 -2.3 99 -0.1 CALM 0 0 - 0 - - 0.8
07/03:30am -2.4 -4.7 -2.5 99 -0.1 CALM 0 0 - 0 - - 0.8
07/03:00am -2.6 -4.9 -2.7 99 -0.1 CALM 0 0 - 0 - - 0.8
07/02:30am -2.8 -5.2 -2.9 99 -0.1 CALM 0 0 - 0 - - 0.8
07/02:00am -3.0 -5.4 -3.1 99 -0.1 CALM 0 0 - 0 - - 0.8
07/01:30am -3.0 -5.4 -3.1 99 -0.1 CALM 0 0 - 0 - - 0.8
07/01:00am -3.9 -6.4 -4.0 99 -0.1 CALM 0 0 - 0 - - 0.8
07/12:30am -3.9 -6.4 -4.0 99 -0.1 CALM 0 0 - 0 - - 0.8
07/12:00am -3.8 -6.3 -3.9 99 -0.1 CALM 0 0 - 0 - - 0.8
 
Date/Time
EST
Temp
°C
App
Temp
°C
Dew
Point
°C
Rel
Hum
%
Delta-T
°C
Wind Press
QNH
hPa
Press
MSL
hPa
Rain since
9am
mm
Dir  Spd
km/h
Gust
km/h
Spd
kts
Gust
kts
06/11:30pm -3.9 -6.4 -4.0 99 -0.1 CALM 0 0 - 0 - - 0.8
06/11:00pm -4.2 -6.7 -4.3 99 -0.2 CALM 0 0 - 0 - - 0.8
06/10:30pm -4.7 -7.3 -4.8 99 -0.2 CALM 0 0 - 0 - - 0.8
06/10:00pm -4.7 -7.3 -4.8 99 -0.2 CALM 0 0 - 0 - - 0.8
06/09:30pm -4.2 -6.7 -4.3 99 -0.2 CALM 0 0 - 0 - - 0.8
06/09:00pm -3.6 -6.1 -3.7 99 -0.1 CALM 0 0 - 0 - - 0.8
06/08:30pm -3.2 -5.6 -3.3 99 -0.1 CALM 0 0 - 0 - - 0.8
06/08:00pm -3.1 -5.5 -3.2 99 -0.1 CALM 0 0 - 0 - - 0.8
06/07:30pm -3.0 -5.4 -3.1 99 -0.1 CALM 0 0 - 0 - - 0.8
06/07:00pm -3.0 -5.4 -3.1 99 -0.1 CALM 0 0 - 0 - - 0.8
06/06:30pm -3.2 -5.6 -3.3 99 -0.1 CALM 0 0 - 0 - - 0.8
06/06:00pm -2.9 -5.3 -2.9 100 0.0 CALM 0 0 - 0 - - 0.8
06/05:30pm -2.9 -5.3 -2.9 100 0.0 CALM 0 0 - 0 - - 0.8
06/05:00pm -2.0 -4.3 -2.0 100 0.0 CALM 0 0 - 0 - - 0.8
06/04:30pm -1.0 -3.1 -1.0 100 0.0 CALM 0 0 - 0 - - 0.8
06/04:00pm -0.7 -2.8 -0.7 100 0.0 CALM 0 0 - 0 - - 0.8
06/03:30pm -0.1 -2.1 -0.1 100 0.0 CALM 0 0 - 0 - - 0.8
06/03:00pm -0.2 -2.2 -0.2 100 0.0 CALM 0 0 - 0 - - 0.8
06/02:30pm -0.1 -2.1 -0.1 100 0.0 CALM 0 2 - 1 - - 0.8
06/02:00pm -0.1 -2.1 -0.1 100 0.0 CALM 0 0 - 0 - - 0.8
06/01:30pm -0.2 -2.2 -0.2 100 0.0 CALM 0 0 - 0 - - 0.8
06/01:00pm -0.1 -2.1 -0.1 100 0.0 CALM 0 0 - 0 - - 0.8
06/12:30pm -0.4 -2.4 -0.4 100 0.0 CALM 0 0 - 0 - - 0.8
06/12:00pm -0.6 -3.0 -0.6 100 0.0 SW 2 9 - 5 - - 0.8
06/11:30am -1.1 -4.6 -1.1 100 0.0 SW 7 9 - 5 - - 0.8
06/11:00am -1.5 -5.4 -1.5 100 0.0 SW 9 11 - 6 - - 0.8
06/10:30am -1.8 -6.1 -1.9 99 -0.1 SW 11 15 - 8 - - 0.8
06/10:00am -2.2 -6.6 -2.3 99 -0.1 SW 11 15 - 8 - - 0.8
06/09:30am -2.6 -7.0 -2.7 99 -0.1 SW 11 13 - 7 - - 0.2
06/09:00am -2.9 -7.4 -3.0 99 -0.1 SW 11 13 - 7 - - 13.4
06/08:30am -3.2 -7.7 -3.3 99 -0.1 SW 11 13 - 7 - - 13.4
06/08:00am -3.4 -7.9 -3.5 99 -0.1 SW 11 15 - 8 - - 13.4
06/07:30am -3.5 -7.7 -3.6 99 -0.1 SW 9 13 - 7 - - 13.4
06/07:00am -3.7 -7.9 -3.8 99 -0.1 SW 9 11 - 6 - - 13.4
06/06:30am -3.6 -8.5 -3.7 99 -0.1 SW 13 15 - 8 - - 13.2
06/06:00am -3.5 -8.4 -3.6 99 -0.1 SW 13 15 - 8 - - 13.2
06/05:30am -3.5 -8.0 -3.6 99 -0.1 SW 11 15 - 8 - - 13.2
06/05:00am -3.4 -7.9 -3.5 99 -0.1 SW 11 15 - 8 - - 12.8
06/04:30am -3.4 -7.9 -3.5 99 -0.1 SW 11 15 - 8 - - 12.8
06/04:00am -3.4 -7.6 -3.5 99 -0.1 SW 9 11 - 6 - - 12.0
06/03:30am -3.5 -7.7 -3.6 99 -0.1 SW 9 13 - 7 - - 12.0
06/03:00am -3.3 -7.8 -3.4 99 -0.1 SW 11 15 - 8 - - 12.0
06/02:30am -3.3 -8.2 -3.4 99 -0.1 SW 13 17 - 9 - - 11.8
06/02:00am -3.4 -8.7 -3.5 99 -0.1 SW 15 19 - 10 - - 11.6
06/01:30am -3.5 -8.8 -3.6 99 -0.1 SW 15 19 - 10 - - 11.2
06/01:00am -3.9 -9.2 -4.0 99 -0.1 SW 15 20 - 11 - - 11.0
06/12:30am -3.9 -9.2 -4.0 99 -0.1 SW 15 17 - 9 - - 11.0
06/12:00am -4.0 -9.4 -4.1 99 -0.1 WSW 15 20 - 11 - - 11.0
 
Date/Time
EST
Temp
°C
App
Temp
°C
Dew
Point
°C
Rel
Hum
%
Delta-T
°C
Wind Press
QNH
hPa
Press
MSL
hPa
Rain since
9am
mm
Dir  Spd
km/h
Gust
km/h
Spd
kts
Gust
kts
05/11:30pm -3.9 -9.2 -4.0 99 -0.1 WSW 15 20 - 11 - - 11.0
05/11:00pm -3.9 -9.2 -4.0 99 -0.1 WSW 15 20 - 11 - - 11.0
05/10:30pm -4.1 -9.9 -4.2 99 -0.1 WSW 17 20 - 11 - - 10.8
05/10:00pm -3.9 -9.2 -4.0 99 -0.1 WSW 15 19 - 10 - - 10.8
05/09:30pm -3.9 -9.6 -4.0 99 -0.1 WSW 17 22 - 12 - - 10.6
05/09:00pm -3.9 -9.6 -4.0 99 -0.1 WSW 17 20 - 11 - - 10.2
05/08:30pm -3.8 -9.5 -3.9 99 -0.1 WSW 17 20 - 11 - - 10.2
05/08:00pm -3.6 -8.9 -3.7 99 -0.1 WSW 15 20 - 11 - - 10.0
05/07:30pm -3.5 -8.8 -3.6 99 -0.1 WSW 15 19 - 10 - - 9.4
05/07:00pm -3.3 -9.0 -3.4 99 -0.1 WSW 17 20 - 11 - - 9.2
05/06:30pm -3.3 -9.0 -3.4 99 -0.1 WSW 17 22 - 12 - - 9.2
05/06:00pm -3.2 -8.5 -3.3 99 -0.1 WSW 15 24 - 13 - - 9.2
05/05:30pm -3.2 -8.8 -3.3 99 -0.1 WSW 17 24 - 13 - - 9.2
05/05:00pm -3.0 -8.2 -3.1 99 -0.1 WSW 15 20 - 11 - - 9.2
05/04:30pm -3.0 -8.2 -3.1 99 -0.1 SW 15 20 - 11 - - 9.2
05/04:00pm -3.4 -9.1 -3.5 99 -0.1 SW 17 20 - 11 - - 9.2
05/03:30pm -3.0 -8.6 -3.1 99 -0.1 WSW 17 20 - 11 - - 9.2
05/03:00pm -2.7 -7.9 -2.8 99 -0.1 WSW 15 20 - 11 - - 9.2
05/02:30pm -3.0 -8.6 -3.1 99 -0.1 SW 17 22 - 12 - - 9.2
05/02:00pm -2.7 -8.3 -2.8 99 -0.1 WSW 17 24 - 13 - - 8.4
05/01:30pm -2.3 -8.2 -2.4 99 -0.1 WSW 19 26 - 14 - - 7.6
05/01:00pm -2.0 -7.9 -2.1 99 -0.1 SW 19 30 - 16 - - 6.2

Other formats

Comma delimited format used in spreadsheet applications
http://www.bom.gov.au/fwo/IDV60801/IDV60801.95901.axf

JavaScript Object Notation format (JSON) in row-major order
http://www.bom.gov.au/fwo/IDV60801/IDV60801.95901.json

Data quality

Most of these data are generated automatically and are frequently updated. Quality checks on data are not normally performed. It is possible for incorrect values to appear. Refer to information at About Latest Weather Observations and please check the disclaimer before using these data.